sensor_id;sensor_type;location;lat;lon;timestamp;pressure;altitude;pressure_sealevel;temperature;humidity
49194;BME280;35029;50.804;12.866;2023-02-08T00:00:41;99984.72;;;-8.49;89.15
49194;BME280;35029;50.804;12.866;2023-02-08T00:03:07;99971.13;;;-8.60;89.58
49194;BME280;35029;50.804;12.866;2023-02-08T00:05:33;99982.19;;;-8.54;89.90
49194;BME280;35029;50.804;12.866;2023-02-08T00:07:58;99968.72;;;-8.73;89.38
49194;BME280;35029;50.804;12.866;2023-02-08T00:10:24;99978.88;;;-8.62;89.40
49194;BME280;35029;50.804;12.866;2023-02-08T00:12:49;99984.00;;;-8.62;89.24
49194;BME280;35029;50.804;12.866;2023-02-08T00:15:17;99994.25;;;-8.59;89.49
49194;BME280;35029;50.804;12.866;2023-02-08T00:17:43;99999.41;;;-8.59;89.75
49194;BME280;35029;50.804;12.866;2023-02-08T00:20:09;99979.00;;;-8.73;88.96
49194;BME280;35029;50.804;12.866;2023-02-08T00:22:35;99995.28;;;-8.71;89.09
49194;BME280;35029;50.804;12.866;2023-02-08T00:25:00;99995.31;;;-8.72;88.68
49194;BME280;35029;50.804;12.866;2023-02-08T00:27:27;99997.03;;;-8.76;88.88
49194;BME280;35029;50.804;12.866;2023-02-08T00:29:53;99991.91;;;-8.76;89.73
49194;BME280;35029;50.804;12.866;2023-02-08T00:32:18;99991.94;;;-8.77;89.79
49194;BME280;35029;50.804;12.866;2023-02-08T00:34:44;99987.66;;;-8.80;89.96
49194;BME280;35029;50.804;12.866;2023-02-08T00:37:09;99990.09;;;-8.68;90.10
49194;BME280;35029;50.804;12.866;2023-02-08T00:39:35;99995.22;;;-8.68;89.47
49194;BME280;35029;50.804;12.866;2023-02-08T00:42:00;100000.44;;;-8.72;88.80
49194;BME280;35029;50.804;12.866;2023-02-08T00:44:26;100001.38;;;-8.81;88.96
49194;BME280;35029;50.804;12.866;2023-02-08T00:46:51;100006.50;;;-8.79;88.39
49194;BME280;35029;50.804;12.866;2023-02-08T00:49:18;100001.44;;;-8.86;89.00
49194;BME280;35029;50.804;12.866;2023-02-08T00:51:43;100006.69;;;-8.95;88.86
49194;BME280;35029;50.804;12.866;2023-02-08T00:54:13;100005.00;;;-8.97;88.58
49194;BME280;35029;50.804;12.866;2023-02-08T00:56:39;99993.00;;;-8.98;88.96
49194;BME280;35029;50.804;12.866;2023-02-08T00:59:05;99959.81;;;-9.17;89.17
49194;BME280;35029;50.804;12.866;2023-02-08T01:01:31;99992.09;;;-8.91;89.29
49194;BME280;35029;50.804;12.866;2023-02-08T01:03:56;99980.88;;;-8.86;89.35
49194;BME280;35029;50.804;12.866;2023-02-08T01:06:22;99981.78;;;-8.88;89.45
49194;BME280;35029;50.804;12.866;2023-02-08T01:08:47;99992.00;;;-8.85;88.96
49194;BME280;35029;50.804;12.866;2023-02-08T01:11:17;100000.66;;;-8.92;88.33
49194;BME280;35029;50.804;12.866;2023-02-08T01:13:43;99990.44;;;-8.97;88.68
49194;BME280;35029;50.804;12.866;2023-02-08T01:16:10;99982.72;;;-8.95;89.40
49194;BME280;35029;50.804;12.866;2023-02-08T01:18:38;99980.19;;;-9.00;88.01
49194;BME280;35029;50.804;12.866;2023-02-08T01:21:13;99938.41;;;-9.18;88.77
49194;BME280;35029;50.804;12.866;2023-02-08T01:23:42;99975.16;;;-9.08;88.73
49194;BME280;35029;50.804;12.866;2023-02-08T01:26:08;99949.59;;;-9.22;89.45
49194;BME280;35029;50.804;12.866;2023-02-08T01:28:34;99967.41;;;-9.06;88.84
49194;BME280;35029;50.804;12.866;2023-02-08T01:31:07;99953.81;;;-9.14;89.04
49194;BME280;35029;50.804;12.866;2023-02-08T01:33:34;99964.03;;;-9.10;89.10
49194;BME280;35029;50.804;12.866;2023-02-08T01:36:00;99961.38;;;-9.02;89.09
49194;BME280;35029;50.804;12.866;2023-02-08T01:38:25;99948.66;;;-9.14;88.41
49194;BME280;35029;50.804;12.866;2023-02-08T01:40:51;99944.44;;;-9.19;88.65
49194;BME280;35029;50.804;12.866;2023-02-08T01:43:24;99954.59;;;-9.09;88.31
49194;BME280;35029;50.804;12.866;2023-02-08T01:45:50;99952.06;;;-9.12;88.40
49194;BME280;35029;50.804;12.866;2023-02-08T01:50:58;99958.09;;;-9.17;87.51
49194;BME280;35029;50.804;12.866;2023-02-08T01:53:28;99955.63;;;-9.26;87.93
49194;BME280;35029;50.804;12.866;2023-02-08T01:55:57;99927.53;;;-9.40;88.70
49194;BME280;35029;50.804;12.866;2023-02-08T01:58:25;99952.16;;;-9.22;88.71
49194;BME280;35029;50.804;12.866;2023-02-08T02:00:52;99943.66;;;-9.28;88.26
49194;BME280;35029;50.804;12.866;2023-02-08T02:03:19;99932.59;;;-9.33;88.58
49194;BME280;35029;50.804;12.866;2023-02-08T02:05:49;99945.38;;;-9.29;88.54
49194;BME280;35029;50.804;12.866;2023-02-08T02:08:16;99948.78;;;-9.28;88.55
49194;BME280;35029;50.804;12.866;2023-02-08T02:10:42;99948.81;;;-9.27;88.83
49194;BME280;35029;50.804;12.866;2023-02-08T02:13:11;99941.09;;;-9.25;88.72
49194;BME280;35029;50.804;12.866;2023-02-08T02:15:42;99946.25;;;-9.30;88.68
49194;BME280;35029;50.804;12.866;2023-02-08T02:18:08;99936.88;;;-9.34;88.61
49194;BME280;35029;50.804;12.866;2023-02-08T02:34:44;99942.75;;;-9.24;88.69
49194;BME280;35029;50.804;12.866;2023-02-08T02:45:34;99931.00;;;-9.44;88.60
49194;BME280;35029;50.804;12.866;2023-02-08T02:48:10;99941.22;;;-9.39;88.86
49194;BME280;35029;50.804;12.866;2023-02-08T02:53:58;99949.81;;;-9.45;88.33
49194;BME280;35029;50.804;12.866;2023-02-08T02:56:33;99954.06;;;-9.41;89.06
49194;BME280;35029;50.804;12.866;2023-02-08T02:59:06;99943.81;;;-9.39;88.75
49194;BME280;35029;50.804;12.866;2023-02-08T03:01:34;99949.81;;;-9.45;88.63
49194;BME280;35029;50.804;12.866;2023-02-08T03:03:59;99944.69;;;-9.45;88.70
49194;BME280;35029;50.804;12.866;2023-02-08T03:09:13;99944.72;;;-9.48;88.15
49194;BME280;35029;50.804;12.866;2023-02-08T03:11:53;99946.50;;;-9.55;87.97
49194;BME280;35029;50.804;12.866;2023-02-08T03:14:55;99942.22;;;-9.56;87.98
49194;BME280;35029;50.804;12.866;2023-02-08T03:20:37;99941.44;;;-9.59;88.44
49194;BME280;35029;50.804;12.866;2023-02-08T03:23:14;99941.47;;;-9.62;88.74
49194;BME280;35029;50.804;12.866;2023-02-08T03:25:57;99930.34;;;-9.66;89.20
49194;BME280;35029;50.804;12.866;2023-02-08T03:28:35;99934.63;;;-9.63;88.76
49194;BME280;35029;50.804;12.866;2023-02-08T03:31:17;99934.53;;;-9.57;88.61
49194;BME280;35029;50.804;12.866;2023-02-08T03:33:52;99933.75;;;-9.64;88.26
49194;BME280;35029;50.804;12.866;2023-02-08T03:36:40;99944.84;;;-9.60;88.76
49194;BME280;35029;50.804;12.866;2023-02-08T03:39:10;99938.00;;;-9.61;88.65
49194;BME280;35029;50.804;12.866;2023-02-08T03:41:39;99937.19;;;-9.65;89.12
49194;BME280;35029;50.804;12.866;2023-02-08T03:44:34;99933.84;;;-9.73;87.79
49194;BME280;35029;50.804;12.866;2023-02-08T03:47:06;99944.13;;;-9.73;88.30
49194;BME280;35029;50.804;12.866;2023-02-08T03:49:35;99943.22;;;-9.71;89.13
49194;BME280;35029;50.804;12.866;2023-02-08T03:52:04;99936.34;;;-9.67;89.42
49194;BME280;35029;50.804;12.866;2023-02-08T03:54:35;99937.22;;;-9.68;88.70
49194;BME280;35029;50.804;12.866;2023-02-08T03:57:16;99931.28;;;-9.72;87.88
49194;BME280;35029;50.804;12.866;2023-02-08T04:00:02;99934.72;;;-9.76;87.93
49194;BME280;35029;50.804;12.866;2023-02-08T04:02:42;99935.56;;;-9.75;89.10
49194;BME280;35029;50.804;12.866;2023-02-08T04:05:11;99932.22;;;-9.83;88.36
49194;BME280;35029;50.804;12.866;2023-02-08T04:07:37;99918.66;;;-9.99;88.73
49194;BME280;35029;50.804;12.866;2023-02-08T04:10:03;99944.28;;;-9.93;88.40
49194;BME280;35029;50.804;12.866;2023-02-08T04:12:28;99939.13;;;-9.90;89.10
49194;BME280;35029;50.804;12.866;2023-02-08T04:14:54;99944.25;;;-9.90;88.77
49194;BME280;35029;50.804;12.866;2023-02-08T04:17:19;99942.53;;;-9.88;89.31
49194;BME280;35029;50.804;12.866;2023-02-08T04:19:45;99946.78;;;-9.87;88.67
49194;BME280;35029;50.804;12.866;2023-02-08T04:22:10;99940.88;;;-9.92;88.22
49194;BME280;35029;50.804;12.866;2023-02-08T04:24:36;99948.56;;;-9.94;88.41
49194;BME280;35029;50.804;12.866;2023-02-08T04:27:01;99952.81;;;-9.93;88.95
49194;BME280;35029;50.804;12.866;2023-02-08T04:29:27;99955.34;;;-9.87;88.86
49194;BME280;35029;50.804;12.866;2023-02-08T04:31:52;99947.59;;;-9.82;89.10
49194;BME280;35029;50.804;12.866;2023-02-08T04:34:18;99951.91;;;-9.84;88.18
49194;BME280;35029;50.804;12.866;2023-02-08T04:36:44;99954.50;;;-9.87;87.77
49194;BME280;35029;50.804;12.866;2023-02-08T04:39:10;99954.56;;;-9.93;87.36
49194;BME280;35029;50.804;12.866;2023-02-08T04:41:36;99950.28;;;-9.94;88.02
49194;BME280;35029;50.804;12.866;2023-02-08T04:44:01;99960.53;;;-9.93;88.61
49194;BME280;35029;50.804;12.866;2023-02-08T04:46:27;99946.94;;;-10.03;87.86
49194;BME280;35029;50.804;12.866;2023-02-08T04:48:52;99948.63;;;-10.00;88.29
49194;BME280;35029;50.804;12.866;2023-02-08T04:51:18;99955.38;;;-9.91;88.14
49194;BME280;35029;50.804;12.866;2023-02-08T04:53:44;99931.59;;;-10.12;87.70
49194;BME280;35029;50.804;12.866;2023-02-08T04:56:10;99947.72;;;-9.96;88.36
49194;BME280;35029;50.804;12.866;2023-02-08T04:58:35;99951.97;;;-9.92;88.29
49194;BME280;35029;50.804;12.866;2023-02-08T05:01:05;99949.38;;;-9.89;88.18
49194;BME280;35029;50.804;12.866;2023-02-08T05:03:31;99931.47;;;-9.93;87.77
49194;BME280;35029;50.804;12.866;2023-02-08T05:05:58;99933.16;;;-9.95;87.92
49194;BME280;35029;50.804;12.866;2023-02-08T05:08:24;99931.50;;;-9.96;87.68
49194;BME280;35029;50.804;12.866;2023-02-08T05:10:50;99937.47;;;-9.97;87.55
49194;BME280;35029;50.804;12.866;2023-02-08T05:13:17;99920.47;;;-10.11;88.20
49194;BME280;35029;50.804;12.866;2023-02-08T05:15:42;99931.50;;;-9.99;88.20
49194;BME280;35029;50.804;12.866;2023-02-08T05:18:09;99940.03;;;-9.97;88.37
49194;BME280;35029;50.804;12.866;2023-02-08T05:20:34;99915.28;;;-10.06;88.04
49194;BME280;35029;50.804;12.866;2023-02-08T05:23:00;99940.88;;;-9.97;88.19
49194;BME280;35029;50.804;12.866;2023-02-08T05:25:25;99898.31;;;-10.23;88.42
49194;BME280;35029;50.804;12.866;2023-02-08T05:27:51;99937.47;;;-9.96;88.45
49194;BME280;35029;50.804;12.866;2023-02-08T05:30:17;99910.28;;;-10.20;87.59
49194;BME280;35029;50.804;12.866;2023-02-08T05:32:42;99932.41;;;-10.05;87.76
49194;BME280;35029;50.804;12.866;2023-02-08T05:35:08;99939.19;;;-9.99;88.32
49194;BME280;35029;50.804;12.866;2023-02-08T05:37:34;99932.41;;;-10.07;87.95
49194;BME280;35029;50.804;12.866;2023-02-08T05:39:59;99934.94;;;-10.02;87.76
49194;BME280;35029;50.804;12.866;2023-02-08T05:42:25;99933.34;;;-10.14;87.83
49194;BME280;35029;50.804;12.866;2023-02-08T05:44:51;99943.53;;;-10.08;88.12
49194;BME280;35029;50.804;12.866;2023-02-08T05:47:17;99950.41;;;-10.10;88.55
49194;BME280;35029;50.804;12.866;2023-02-08T05:49:42;99947.78;;;-10.04;88.60
49194;BME280;35029;50.804;12.866;2023-02-08T05:52:08;99938.41;;;-10.05;88.24
49194;BME280;35029;50.804;12.866;2023-02-08T05:54:33;99933.25;;;-10.06;87.83
49194;BME280;35029;50.804;12.866;2023-02-08T05:56:59;99940.06;;;-10.02;87.85
49194;BME280;35029;50.804;12.866;2023-02-08T05:59:24;99941.84;;;-10.10;87.40
49194;BME280;35029;50.804;12.866;2023-02-08T06:01:50;99938.44;;;-10.11;87.29
49194;BME280;35029;50.804;12.866;2023-02-08T06:04:15;99938.47;;;-10.17;87.40
49194;BME280;35029;50.804;12.866;2023-02-08T06:06:41;99948.72;;;-10.17;87.69
49194;BME280;35029;50.804;12.866;2023-02-08T06:09:06;99937.69;;;-10.22;88.53
49194;BME280;35029;50.804;12.866;2023-02-08T06:11:32;99962.44;;;-10.23;87.89
49194;BME280;35029;50.804;12.866;2023-02-08T06:14:00;99944.56;;;-10.30;87.74
49194;BME280;35029;50.804;12.866;2023-02-08T06:16:27;99962.47;;;-10.24;87.91
49194;BME280;35029;50.804;12.866;2023-02-08T06:18:52;99912.25;;;-10.53;88.24
49194;BME280;35029;50.804;12.866;2023-02-08T06:21:18;99953.06;;;-10.25;88.00
49194;BME280;35029;50.804;12.866;2023-02-08T06:23:43;99957.31;;;-10.23;88.13
49194;BME280;35029;50.804;12.866;2023-02-08T06:26:09;99949.63;;;-10.24;88.51
49194;BME280;35029;50.804;12.866;2023-02-08T06:28:34;99954.69;;;-10.09;89.04
49194;BME280;35029;50.804;12.866;2023-02-08T06:31:00;99965.81;;;-10.10;87.68
49194;BME280;35029;50.804;12.866;2023-02-08T06:33:25;99953.00;;;-10.16;87.87
49194;BME280;35029;50.804;12.866;2023-02-08T06:35:51;99960.66;;;-10.08;88.43
49194;BME280;35029;50.804;12.866;2023-02-08T06:38:18;99969.19;;;-10.05;88.37
49194;BME280;35029;50.804;12.866;2023-02-08T06:40:45;99967.50;;;-10.10;88.53
49194;BME280;35029;50.804;12.866;2023-02-08T06:43:11;99978.59;;;-10.07;88.17
49194;BME280;35029;50.804;12.866;2023-02-08T06:45:36;99971.75;;;-10.08;88.59
49194;BME280;35029;50.804;12.866;2023-02-08T06:48:02;99976.88;;;-10.03;87.95
49194;BME280;35029;50.804;12.866;2023-02-08T06:50:28;99982.81;;;-10.01;88.27
49194;BME280;35029;50.804;12.866;2023-02-08T06:52:53;99982.78;;;-9.93;87.75
49194;BME280;35029;50.804;12.866;2023-02-08T06:55:19;99985.34;;;-9.93;88.01
49194;BME280;35029;50.804;12.866;2023-02-08T06:57:44;99981.94;;;-9.95;87.93
49194;BME280;35029;50.804;12.866;2023-02-08T07:00:10;99972.50;;;-9.93;86.92
49194;BME280;35029;50.804;12.866;2023-02-08T07:02:36;99983.63;;;-9.94;87.21
49194;BME280;35029;50.804;12.866;2023-02-08T07:05:02;99993.88;;;-9.88;87.91
49194;BME280;35029;50.804;12.866;2023-02-08T07:07:27;99975.06;;;-9.92;87.75
49194;BME280;35029;50.804;12.866;2023-02-08T07:09:53;99986.97;;;-9.80;87.69
49194;BME280;35029;50.804;12.866;2023-02-08T07:12:18;99997.19;;;-9.77;87.50
49194;BME280;35029;50.804;12.866;2023-02-08T07:14:44;99964.75;;;-9.84;87.68
49194;BME280;35029;50.804;12.866;2023-02-08T07:17:11;99988.50;;;-9.60;88.24
49194;BME280;35029;50.804;12.866;2023-02-08T07:19:37;99994.44;;;-9.55;87.96
49194;BME280;35029;50.804;12.866;2023-02-08T07:22:03;99982.31;;;-9.41;90.02
49194;BME280;35029;50.804;12.866;2023-02-08T07:24:39;99979.66;;;-8.55;92.87
49194;BME280;35029;50.804;12.866;2023-02-08T07:27:06;99978.88;;;-8.62;88.55
49194;BME280;35029;50.804;12.866;2023-02-08T07:29:33;99982.47;;;-8.75;87.25
49194;BME280;35029;50.804;12.866;2023-02-08T07:32:00;99963.03;;;-8.98;86.76
49194;BME280;35029;50.804;12.866;2023-02-08T07:34:28;99975.78;;;-8.90;87.36
49194;BME280;35029;50.804;12.866;2023-02-08T07:36:54;99985.16;;;-8.86;87.20
49194;BME280;35029;50.804;12.866;2023-02-08T07:39:19;99934.00;;;-9.06;88.11
49194;BME280;35029;50.804;12.866;2023-02-08T07:41:46;99950.97;;;-8.91;89.01
49194;BME280;35029;50.804;12.866;2023-02-08T07:44:12;99950.00;;;-8.84;88.22
49194;BME280;35029;50.804;12.866;2023-02-08T07:46:38;99969.50;;;-8.66;88.76
49194;BME280;35029;50.804;12.866;2023-02-08T07:49:04;99963.41;;;-8.57;89.14
49194;BME280;35029;50.804;12.866;2023-02-08T07:51:30;99975.25;;;-8.47;89.11
49194;BME280;35029;50.804;12.866;2023-02-08T07:53:55;99975.97;;;-8.39;89.07
49194;BME280;35029;50.804;12.866;2023-02-08T07:56:21;99963.88;;;-8.34;89.08
49194;BME280;35029;50.804;12.866;2023-02-08T07:58:47;99978.22;;;-8.17;89.64
49194;BME280;35029;50.804;12.866;2023-02-08T08:01:12;99969.53;;;-8.10;89.39
49194;BME280;35029;50.804;12.866;2023-02-08T08:03:38;99972.75;;;-7.95;89.36
49194;BME280;35029;50.804;12.866;2023-02-08T08:06:03;99975.19;;;-7.86;89.58
49194;BME280;35029;50.804;12.866;2023-02-08T08:08:29;99949.38;;;-7.83;90.05
49194;BME280;35029;50.804;12.866;2023-02-08T08:10:54;99973.03;;;-7.59;90.60
49194;BME280;35029;50.804;12.866;2023-02-08T08:13:22;99978.81;;;-7.45;90.63
49194;BME280;35029;50.804;12.866;2023-02-08T08:15:47;99974.25;;;-7.32;89.93
49194;BME280;35029;50.804;12.866;2023-02-08T08:18:13;99973.13;;;-7.17;91.40
49194;BME280;35029;50.804;12.866;2023-02-08T08:20:39;99973.63;;;-6.97;92.01
49194;BME280;35029;50.804;12.866;2023-02-08T08:23:04;99977.50;;;-6.75;91.90
49194;BME280;35029;50.804;12.866;2023-02-08T08:25:30;99964.31;;;-6.62;92.43
49194;BME280;35029;50.804;12.866;2023-02-08T08:27:55;99977.50;;;-6.35;92.92
49194;BME280;35029;50.804;12.866;2023-02-08T08:30:21;99971.94;;;-6.18;92.58
49194;BME280;35029;50.804;12.866;2023-02-08T08:32:47;99971.50;;;-5.98;93.11
49194;BME280;35029;50.804;12.866;2023-02-08T08:35:12;99952.28;;;-5.87;93.61
49194;BME280;35029;50.804;12.866;2023-02-08T08:37:38;99971.31;;;-5.55;93.24
49194;BME280;35029;50.804;12.866;2023-02-08T08:40:05;99971.88;;;-5.43;93.81
49194;BME280;35029;50.804;12.866;2023-02-08T08:42:32;99974.13;;;-5.30;93.37
49194;BME280;35029;50.804;12.866;2023-02-08T08:44:58;99973.91;;;-5.22;93.89
49194;BME280;35029;50.804;12.866;2023-02-08T08:47:24;99979.72;;;-5.14;93.85
49194;BME280;35029;50.804;12.866;2023-02-08T08:49:49;99973.41;;;-5.04;93.85
49194;BME280;35029;50.804;12.866;2023-02-08T08:52:15;99975.72;;;-4.93;93.61
49194;BME280;35029;50.804;12.866;2023-02-08T08:54:41;99983.19;;;-4.82;93.73
49194;BME280;35029;50.804;12.866;2023-02-08T08:57:06;99963.94;;;-4.73;94.17
49194;BME280;35029;50.804;12.866;2023-02-08T08:59:32;99972.34;;;-4.65;93.85
49194;BME280;35029;50.804;12.866;2023-02-08T09:01:58;99973.00;;;-4.59;93.75
49194;BME280;35029;50.804;12.866;2023-02-08T09:04:23;99973.59;;;-4.49;94.01
49194;BME280;35029;50.804;12.866;2023-02-08T09:06:50;99950.34;;;-4.50;94.37
49194;BME280;35029;50.804;12.866;2023-02-08T09:09:16;99958.72;;;-4.42;93.95
49194;BME280;35029;50.804;12.866;2023-02-08T09:11:42;99978.00;;;-4.22;94.08
49194;BME280;35029;50.804;12.866;2023-02-08T09:14:07;99979.59;;;-4.18;93.77
49194;BME280;35029;50.804;12.866;2023-02-08T09:16:34;99976.72;;;-4.09;93.86
49194;BME280;35029;50.804;12.866;2023-02-08T09:19:00;99978.97;;;-3.98;92.90
49194;BME280;35029;50.804;12.866;2023-02-08T09:21:26;99978.56;;;-3.84;91.47
49194;BME280;35029;50.804;12.866;2023-02-08T09:23:52;99982.34;;;-3.68;90.80
49194;BME280;35029;50.804;12.866;2023-02-08T09:26:18;99983.72;;;-3.58;90.09
49194;BME280;35029;50.804;12.866;2023-02-08T09:28:44;99984.16;;;-3.45;89.68
49194;BME280;35029;50.804;12.866;2023-02-08T09:31:23;99970.69;;;-3.29;88.88
49194;BME280;35029;50.804;12.866;2023-02-08T09:33:50;99973.78;;;-3.19;87.98
49194;BME280;35029;50.804;12.866;2023-02-08T09:36:17;99972.63;;;-3.11;87.78
49194;BME280;35029;50.804;12.866;2023-02-08T09:38:43;99976.53;;;-2.99;87.17
49194;BME280;35029;50.804;12.866;2023-02-08T09:46:58;99968.94;;;-2.80;85.32
49194;BME280;35029;50.804;12.866;2023-02-08T09:49:30;99979.63;;;-2.64;84.43
49194;BME280;35029;50.804;12.866;2023-02-08T09:51:59;99986.38;;;-2.60;83.16
49194;BME280;35029;50.804;12.866;2023-02-08T09:54:32;99970.03;;;-2.62;83.02
49194;BME280;35029;50.804;12.866;2023-02-08T09:57:02;99991.19;;;-2.49;81.88
49194;BME280;35029;50.804;12.866;2023-02-08T09:59:32;99991.69;;;-2.39;82.42
49194;BME280;35029;50.804;12.866;2023-02-08T10:05:13;100000.72;;;-2.26;81.84
49194;BME280;35029;50.804;12.866;2023-02-08T10:07:40;100002.16;;;-2.18;81.35
49194;BME280;35029;50.804;12.866;2023-02-08T10:10:13;100000.22;;;-2.13;80.42
49194;BME280;35029;50.804;12.866;2023-02-08T10:13:17;100001.59;;;-2.03;79.38
49194;BME280;35029;50.804;12.866;2023-02-08T10:15:47;99994.19;;;-1.92;79.65
49194;BME280;35029;50.804;12.866;2023-02-08T10:18:31;99991.13;;;-1.79;79.60
49194;BME280;35029;50.804;12.866;2023-02-08T10:26:36;99978.50;;;-1.68;77.32
49194;BME280;35029;50.804;12.866;2023-02-08T10:29:10;99991.53;;;-1.47;77.23
49194;BME280;35029;50.804;12.866;2023-02-08T10:31:43;99990.41;;;-1.40;75.44
49194;BME280;35029;50.804;12.866;2023-02-08T10:34:27;99989.16;;;-1.31;75.72
49194;BME280;35029;50.804;12.866;2023-02-08T10:36:54;99992.28;;;-1.23;74.76
49194;BME280;35029;50.804;12.866;2023-02-08T10:39:27;99998.06;;;-1.16;74.78
49194;BME280;35029;50.804;12.866;2023-02-08T10:41:54;99986.53;;;-1.11;72.42
49194;BME280;35029;50.804;12.866;2023-02-08T10:50:43;99978.81;;;-0.73;73.15
49194;BME280;35029;50.804;12.866;2023-02-08T10:53:15;99967.91;;;-0.62;73.03
49194;BME280;35029;50.804;12.866;2023-02-08T10:55:43;99974.03;;;-0.44;73.23
49194;BME280;35029;50.804;12.866;2023-02-08T10:58:15;99971.81;;;-0.32;72.24
49194;BME280;35029;50.804;12.866;2023-02-08T11:00:42;99970.75;;;-0.28;72.98
49194;BME280;35029;50.804;12.866;2023-02-08T11:03:25;99969.97;;;-0.30;71.45
49194;BME280;35029;50.804;12.866;2023-02-08T11:05:52;99962.63;;;-0.22;71.98
49194;BME280;35029;50.804;12.866;2023-02-08T11:08:21;99961.22;;;-0.10;71.20
49194;BME280;35029;50.804;12.866;2023-02-08T11:11:06;99960.69;;;0.01;70.76
49194;BME280;35029;50.804;12.866;2023-02-08T11:13:44;99971.44;;;0.12;71.18
49194;BME280;35029;50.804;12.866;2023-02-08T11:16:24;99967.56;;;0.21;68.47
49194;BME280;35029;50.804;12.866;2023-02-08T11:19:00;99957.34;;;0.16;69.00
49194;BME280;35029;50.804;12.866;2023-02-08T11:21:33;99943.69;;;0.28;68.80
49194;BME280;35029;50.804;12.866;2023-02-08T11:26:37;99938.56;;;0.27;67.15
49194;BME280;35029;50.804;12.866;2023-02-08T11:29:18;99932.56;;;0.42;69.53
49194;BME280;35029;50.804;12.866;2023-02-08T11:34:24;99933.06;;;0.50;67.74
49194;BME280;35029;50.804;12.866;2023-02-08T11:36:50;99922.47;;;0.54;66.97
49194;BME280;35029;50.804;12.866;2023-02-08T11:39:32;99924.91;;;0.57;67.18
49194;BME280;35029;50.804;12.866;2023-02-08T11:42:01;99931.97;;;0.37;67.34
49194;BME280;35029;50.804;12.866;2023-02-08T11:44:41;99931.75;;;0.42;67.96
49194;BME280;35029;50.804;12.866;2023-02-08T11:47:09;99933.81;;;0.35;67.11
49194;BME280;35029;50.804;12.866;2023-02-08T11:49:41;99930.28;;;0.36;68.03
49194;BME280;35029;50.804;12.866;2023-02-08T11:52:19;99935.34;;;0.39;66.95
49194;BME280;35029;50.804;12.866;2023-02-08T11:54:46;99936.75;;;0.46;67.00
49194;BME280;35029;50.804;12.866;2023-02-08T11:57:16;99935.66;;;0.50;67.22
49194;BME280;35029;50.804;12.866;2023-02-08T11:59:44;99922.22;;;0.58;67.02
49194;BME280;35029;50.804;12.866;2023-02-08T12:02:35;99925.44;;;0.63;67.19
49194;BME280;35029;50.804;12.866;2023-02-08T12:05:02;99922.47;;;0.87;65.97
49194;BME280;35029;50.804;12.866;2023-02-08T12:07:58;99932.44;;;0.96;67.65
49194;BME280;35029;50.804;12.866;2023-02-08T12:18:47;99929.00;;;0.96;65.47
49194;BME280;35029;50.804;12.866;2023-02-08T12:21:23;99912.28;;;0.82;65.48
49194;BME280;35029;50.804;12.866;2023-02-08T12:23:54;99932.81;;;0.73;64.70
49194;BME280;35029;50.804;12.866;2023-02-08T12:29:25;99930.44;;;0.50;65.03
49194;BME280;35029;50.804;12.866;2023-02-08T12:32:13;99914.72;;;0.35;66.69
49194;BME280;35029;50.804;12.866;2023-02-08T12:34:49;99920.06;;;0.49;66.07
49194;BME280;35029;50.804;12.866;2023-02-08T12:37:19;99908.88;;;0.47;65.88
49194;BME280;35029;50.804;12.866;2023-02-08T12:40:33;99903.13;;;0.23;65.54
49194;BME280;35029;50.804;12.866;2023-02-08T12:46:15;99914.78;;;0.15;65.91
49194;BME280;35029;50.804;12.866;2023-02-08T12:48:59;99911.47;;;0.12;67.66
49194;BME280;35029;50.804;12.866;2023-02-08T12:51:43;99905.94;;;0.01;66.35
49194;BME280;35029;50.804;12.866;2023-02-08T12:54:17;99907.91;;;-0.05;66.71
49194;BME280;35029;50.804;12.866;2023-02-08T12:56:49;99900.78;;;-0.19;67.43
49194;BME280;35029;50.804;12.866;2023-02-08T12:59:22;99896.56;;;-0.21;69.05
49194;BME280;35029;50.804;12.866;2023-02-08T13:01:52;99901.59;;;-0.18;68.90
49194;BME280;35029;50.804;12.866;2023-02-08T13:04:26;99893.88;;;-0.20;69.76
49194;BME280;35029;50.804;12.866;2023-02-08T13:06:58;99896.81;;;-0.27;69.12
49194;BME280;35029;50.804;12.866;2023-02-08T13:12:03;99890.19;;;-0.15;70.35
49194;BME280;35029;50.804;12.866;2023-02-08T13:14:34;99890.50;;;-0.22;68.90
49194;BME280;35029;50.804;12.866;2023-02-08T13:17:08;99880.06;;;-0.22;70.02
49194;BME280;35029;50.804;12.866;2023-02-08T13:19:51;99843.41;;;-0.36;69.43
49194;BME280;35029;50.804;12.866;2023-02-08T13:22:20;99847.53;;;-0.32;68.51
49194;BME280;35029;50.804;12.866;2023-02-08T13:24:47;99871.78;;;-0.30;69.19
49194;BME280;35029;50.804;12.866;2023-02-08T13:27:18;99870.53;;;-0.40;69.60
49194;BME280;35029;50.804;12.866;2023-02-08T13:29:45;99867.44;;;-0.48;70.17
49194;BME280;35029;50.804;12.866;2023-02-08T13:32:30;99858.34;;;-0.59;69.39
49194;BME280;35029;50.804;12.866;2023-02-08T13:35:10;99841.00;;;-0.77;69.82
49194;BME280;35029;50.804;12.866;2023-02-08T13:37:37;99857.13;;;-0.69;69.60
49194;BME280;35029;50.804;12.866;2023-02-08T13:40:17;99857.03;;;-0.68;70.33
49194;BME280;35029;50.804;12.866;2023-02-08T13:43:15;99830.34;;;-0.73;70.21
49194;BME280;35029;50.804;12.866;2023-02-08T13:45:50;99847.44;;;-0.67;71.40
49194;BME280;35029;50.804;12.866;2023-02-08T13:48:18;99836.91;;;-0.64;72.32
49194;BME280;35029;50.804;12.866;2023-02-08T13:50:54;99829.66;;;-0.57;72.63
49194;BME280;35029;50.804;12.866;2023-02-08T13:56:40;99829.69;;;-0.59;73.51
49194;BME280;35029;50.804;12.866;2023-02-08T13:59:38;99842.25;;;-0.67;73.39
49194;BME280;35029;50.804;12.866;2023-02-08T14:04:50;99833.13;;;-0.76;72.48
49194;BME280;35029;50.804;12.866;2023-02-08T14:07:42;99857.88;;;-0.67;72.21
49194;BME280;35029;50.804;12.866;2023-02-08T14:10:33;99850.25;;;-0.53;71.32
49194;BME280;35029;50.804;12.866;2023-02-08T14:15:45;99852.00;;;-0.34;70.12
49194;BME280;35029;50.804;12.866;2023-02-08T14:18:25;99845.28;;;-0.40;69.00
49194;BME280;35029;50.804;12.866;2023-02-08T14:21:04;99858.75;;;-0.30;68.70
49194;BME280;35029;50.804;12.866;2023-02-08T14:23:34;99850.63;;;-0.24;67.61
49194;BME280;35029;50.804;12.866;2023-02-08T14:26:09;99841.03;;;-0.23;68.30
49194;BME280;35029;50.804;12.866;2023-02-08T14:28:44;99850.47;;;-0.21;67.39